Time;durP1;ratioP1;P1;durP2;ratioP2;P2;SDS_P1;SDS_P2;PMS_P1;PMS_P2;Temp;Humidity;BMP_temperature;BMP_pressure;BME280_temperature;BME280_humidity;BME280_pressure;Samples;Min_cycle;Max_cycle;Signal;HPM_P1;HPM_P2
2021/10/25 00:01:13;;;;;;;19.10;10.20;;;;;;;-2.64;81.41;98947.48;116918;1177;69256;-74
2021/10/25 00:03:42;;;;;;;21.00;11.90;;;;;;;-2.70;81.15;98947.99;117036;1177;58720;-68
2021/10/25 00:06:12;;;;;;;20.90;10.80;;;;;;;-2.75;81.75;98953.44;116955;1177;58737;-70
2021/10/25 00:08:42;;;;;;;25.10;12.30;;;;;;;-2.79;82.47;98952.33;117042;1177;70415;-73
2021/10/25 00:11:11;;;;;;;19.60;10.20;;;;;;;-2.82;82.44;98947.30;117110;1177;68215;-74
2021/10/25 00:13:42;;;;;;;21.20;11.30;;;;;;;-2.82;84.40;98944.00;116982;1177;68467;-69
2021/10/25 00:16:11;;;;;;;22.80;13.00;;;;;;;-2.83;83.71;98946.90;117036;1177;59081;-72
2021/10/25 00:18:40;;;;;;;20.10;12.20;;;;;;;-2.79;82.14;98942.34;116850;1177;58757;-67
2021/10/25 00:21:10;;;;;;;32.00;16.00;;;;;;;-2.77;82.45;98940.04;116989;1178;70731;-73
2021/10/25 00:23:40;;;;;;;24.40;14.00;;;;;;;-2.83;82.37;98943.42;116968;1177;67646;-69
2021/10/25 00:26:11;;;;;;;21.20;11.90;;;;;;;-2.90;82.32;98941.98;116896;1179;68440;-74
2021/10/25 00:28:42;;;;;;;25.50;13.70;;;;;;;-2.95;81.83;98942.80;116972;1177;58802;-75
2021/10/25 00:31:11;;;;;;;19.20;11.30;;;;;;;-3.00;81.53;98943.76;116952;1177;58713;-74
2021/10/25 00:33:41;;;;;;;18.50;10.90;;;;;;;-3.02;82.16;98945.02;116965;1177;70518;-74
2021/10/25 00:36:11;;;;;;;19.70;11.20;;;;;;;-3.02;84.06;98946.98;117015;1177;67584;-71
2021/10/25 00:38:42;;;;;;;20.80;11.30;;;;;;;-3.03;83.87;98948.95;117061;1177;67326;-74
2021/10/25 00:41:11;;;;;;;20.50;10.50;;;;;;;-3.03;83.67;98947.23;116981;1177;58745;-72
2021/10/25 00:43:41;;;;;;;22.60;12.60;;;;;;;-3.04;83.41;98952.16;117024;1177;58729;-69
2021/10/25 00:46:10;;;;;;;19.40;11.40;;;;;;;-3.03;82.71;98953.83;116980;1177;69846;-72
2021/10/25 00:48:40;;;;;;;19.30;9.80;;;;;;;-3.05;82.66;98951.48;117078;1177;67866;-69
2021/10/25 00:51:12;;;;;;;18.00;11.10;;;;;;;-3.04;84.20;98952.92;116969;1177;67683;-68
2021/10/25 00:53:42;;;;;;;22.30;12.30;;;;;;;-3.10;82.82;98954.59;116773;1177;58708;-74
2021/10/25 00:56:12;;;;;;;;;;;;;;;-3.13;82.53;98950.63;116992;1177;58777;-68
2021/10/25 00:58:41;;;;;;;16.20;9.60;;;;;;;-3.15;82.54;98943.10;116746;1179;69627;-70
2021/10/25 01:01:12;;;;;;;20.70;11.10;;;;;;;-3.15;84.18;98938.98;117049;1177;68354;-68
2021/10/25 01:03:42;;;;;;;23.30;13.30;;;;;;;-3.16;84.26;98942.49;117000;1177;68460;-76
2021/10/25 01:06:14;;;;;;;21.20;11.30;;;;;;;-3.19;83.62;98945.00;116884;1178;58782;-75
2021/10/25 01:08:45;;;;;;;27.20;13.80;;;;;;;-3.23;83.77;98943.58;117046;1177;58642;-71
2021/10/25 01:11:15;;;;;;;22.50;12.20;;;;;;;-3.24;83.11;98936.35;116979;1177;70366;-71
2021/10/25 01:13:45;;;;;;;21.40;12.00;;;;;;;-3.24;82.71;98936.07;116948;1177;68391;-70
2021/10/25 01:16:16;;;;;;;21.80;12.10;;;;;;;-3.23;82.78;98929.33;116974;1177;69227;-74
2021/10/25 01:18:48;;;;;;;19.50;10.70;;;;;;;-3.21;83.45;98929.89;116911;1177;58764;-74
2021/10/25 01:21:17;;;;;;;19.70;10.60;;;;;;;-3.20;82.89;98930.67;116686;1178;58680;-71
2021/10/25 01:23:50;;;;;;;18.60;10.10;;;;;;;-3.22;83.41;98926.67;117002;1177;69764;-69
2021/10/25 01:26:21;;;;;;;26.10;14.00;;;;;;;-3.21;84.82;98928.33;117204;1176;68203;-73
2021/10/25 01:28:53;;;;;;;26.10;12.40;;;;;;;-3.21;83.67;98928.32;116941;1173;69227;-73
2021/10/25 01:31:23;;;;;;;31.30;16.60;;;;;;;-3.22;83.08;98926.98;117089;1177;58752;-73
2021/10/25 01:33:54;;;;;;;25.50;13.80;;;;;;;-3.24;82.97;98930.81;117060;1177;58739;-75
2021/10/25 01:36:27;;;;;;;23.50;13.30;;;;;;;-3.27;82.56;98923.98;116961;1177;70380;-69
2021/10/25 01:38:57;;;;;;;;;;;;;;;-3.33;82.65;98918.02;116683;1180;68265;-68
2021/10/25 01:41:27;;;;;;;26.00;12.40;;;;;;;-3.38;82.87;98921.66;117000;1177;69491;-71
2021/10/25 01:43:59;;;;;;;17.70;9.90;;;;;;;-3.43;82.55;98923.54;116848;1179;58710;-74
2021/10/25 01:46:29;;;;;;;20.60;11.30;;;;;;;-3.46;84.52;98929.20;117071;1177;58840;-72
2021/10/25 01:49:00;;;;;;;;;;;;;;;-3.50;84.54;98928.16;117137;1177;71013;-72
2021/10/25 01:51:30;;;;;;;16.70;9.90;;;;;;;-3.52;85.29;98924.75;116935;1177;68360;-67
2021/10/25 01:54:03;;;;;;;25.00;12.40;;;;;;;-3.54;85.24;98921.94;116957;1179;69018;-74
2021/10/25 01:56:38;;;;;;;21.30;12.10;;;;;;;-3.57;84.45;98917.30;116949;1177;58722;-74
2021/10/25 01:59:08;;;;;;;28.80;14.70;;;;;;;-3.56;85.62;98919.52;117004;1177;58744;-69
2021/10/25 02:01:38;;;;;;;26.90;14.30;;;;;;;-3.61;85.02;98923.90;117014;1177;70538;-73
2021/10/25 02:04:08;;;;;;;25.30;13.90;;;;;;;-3.69;83.89;98922.17;116977;1177;67859;-69
2021/10/25 02:06:39;;;;;;;;;;;;;;;-3.76;83.37;98925.13;117020;1177;68431;-68
2021/10/25 02:09:09;;;;;;;27.70;13.70;;;;;;;-3.83;83.41;98926.39;116904;1177;58857;-71
2021/10/25 02:11:40;;;;;;;21.00;7.70;;;;;;;-3.93;82.64;98929.87;117121;1176;59110;-69
2021/10/25 02:14:11;;;;;;;26.30;13.30;;;;;;;-4.02;83.60;98927.77;116964;1177;69608;-70
2021/10/25 02:16:43;;;;;;;21.10;10.70;;;;;;;-4.08;83.62;98927.48;117075;1177;67661;-72
2021/10/25 02:19:13;;;;;;;17.10;10.30;;;;;;;-4.11;84.32;98927.12;116913;1177;68520;-71
2021/10/25 02:21:51;;;;;;;22.20;12.10;;;;;;;-4.12;84.94;98918.66;116970;1177;58831;-69
2021/10/25 02:24:22;;;;;;;24.80;11.70;;;;;;;-4.16;84.26;98914.20;117157;1177;58735;-73
2021/10/25 02:26:52;;;;;;;21.10;11.80;;;;;;;-4.19;83.06;98912.43;117306;1177;69950;-68
2021/10/25 02:29:25;;;;;;;25.00;14.80;;;;;;;-4.17;82.94;98904.54;117127;1176;67452;-73
2021/10/25 02:31:56;;;;;;;25.50;14.70;;;;;;;-4.14;83.03;98908.61;116949;1177;69239;-70
2021/10/25 02:34:27;;;;;;;24.50;13.10;;;;;;;-4.09;82.67;98910.13;116930;1178;58719;-70
2021/10/25 02:36:57;;;;;;;26.40;14.70;;;;;;;-4.03;82.73;98911.11;117074;1177;58809;-69
2021/10/25 02:39:29;;;;;;;31.80;19.00;;;;;;;-3.97;83.26;98912.58;116805;1180;69561;-72
2021/10/25 02:41:58;;;;;;;;;;;;;;;-3.88;84.65;98911.40;117094;1177;67557;-73
2021/10/25 02:44:27;;;;;;;28.50;16.80;;;;;;;-3.79;85.47;98911.09;116967;1177;69221;-76
2021/10/25 02:46:58;;;;;;;31.80;16.80;;;;;;;-3.74;86.11;98917.53;117009;1177;59561;-75
2021/10/25 02:49:28;;;;;;;30.60;16.90;;;;;;;-3.74;85.60;98917.13;116968;1177;59593;-75
2021/10/25 02:52:00;;;;;;;22.80;13.60;;;;;;;-3.77;84.99;98912.27;116938;1178;70946;-71
2021/10/25 02:54:31;;;;;;;25.30;13.70;;;;;;;-3.81;85.27;98912.19;116661;1180;68843;-68
2021/10/25 02:57:01;;;;;;;26.20;14.00;;;;;;;-3.86;85.05;98913.20;117022;1177;69318;-73
2021/10/25 02:59:32;;;;;;;;;;;;;;;-3.89;84.54;98912.95;116941;1177;59547;-73
2021/10/25 03:02:02;;;;;;;29.00;14.40;;;;;;;-3.89;85.71;98911.71;116994;1177;59551;-75
2021/10/25 03:04:32;;;;;;;24.70;14.20;;;;;;;-3.92;85.11;98913.10;116987;1177;70494;-72
2021/10/25 03:07:03;;;;;;;27.00;14.70;;;;;;;-3.95;84.62;98909.19;116864;1177;68097;-69
2021/10/25 03:09:38;;;;;;;24.20;14.00;;;;;;;-3.98;84.39;98907.35;116959;1177;69194;-75
2021/10/25 03:12:09;;;;;;;;;;;;;;;-3.96;84.74;98903.36;116941;1180;59583;-71
2021/10/25 03:14:39;;;;;;;28.70;14.50;;;;;;;-3.93;84.81;98905.17;116975;1177;59917;-69
2021/10/25 03:17:08;;;;;;;27.00;15.50;;;;;;;-3.91;85.03;98907.27;116981;1177;70553;-69
2021/10/25 03:20:05;;;;;;;28.00;15.20;;;;;;;-3.88;85.49;98909.39;116884;1177;68658;-69
2021/10/25 03:22:35;;;;;;;34.20;16.50;;;;;;;-3.84;85.90;98908.80;117025;1177;69236;-70
2021/10/25 03:25:05;;;;;;;28.20;16.30;;;;;;;-3.82;85.95;98906.27;116855;1177;59548;-72
2021/10/25 03:27:36;;;;;;;28.30;14.30;;;;;;;-3.83;86.17;98908.33;116909;1177;59497;-70
2021/10/25 03:30:07;;;;;;;22.40;12.20;;;;;;;-3.86;85.99;98915.13;116962;1177;71707;-70
2021/10/25 03:32:40;;;;;;;17.00;9.50;;;;;;;-3.89;85.87;98912.52;116959;1177;68216;-73
2021/10/25 03:35:29;;;;;;;16.50;9.00;;;;;;;-3.92;86.51;98910.02;116934;1177;68470;-71
2021/10/25 03:37:59;;;;;;;20.50;10.20;;;;;;;-3.97;86.16;98909.16;117037;1177;59570;-70
2021/10/25 03:40:31;;;;;;;19.70;10.00;;;;;;;-3.99;86.59;98909.54;116998;1177;59541;-75
2021/10/25 03:43:01;;;;;;;22.00;11.80;;;;;;;-4.00;87.07;98908.55;116987;1177;71165;-71
2021/10/25 03:45:37;;;;;;;21.90;11.60;;;;;;;-4.02;86.96;98910.16;116972;1179;68364;-69
2021/10/25 03:48:57;;;;;;;21.20;11.20;;;;;;;-4.05;86.03;98908.84;116995;1177;68439;-69
2021/10/25 03:50:57;;;;;;;20.50;12.10;;;;;;;-4.07;85.38;98904.34;116987;1177;59978;-71
2021/10/25 03:56:15;;;;;;;29.50;11.70;;;;;;;-4.09;85.24;98906.78;117005;1177;71384;-69
2021/10/25 04:13:01;;;;;;;29.10;16.90;;;;;;;-4.18;85.16;98913.86;117013;1177;71963;-69
2021/10/25 04:27:13;;;;;;;21.60;11.80;;;;;;;-4.63;83.99;98907.99;116943;1177;68436;-73
2021/10/25 04:29:44;;;;;;;22.70;12.50;;;;;;;-4.61;85.04;98910.39;116947;1180;67241;-73
2021/10/25 04:32:14;;;;;;;19.20;9.90;;;;;;;-4.60;85.07;98912.52;116912;1177;59609;-75
2021/10/25 04:34:43;;;;;;;20.00;11.60;;;;;;;-4.59;85.63;98907.64;116882;1176;59542;-72
2021/10/25 04:37:31;;;;;;;23.20;12.10;;;;;;;-4.59;85.09;98906.48;116945;1177;71152;-71
2021/10/25 04:40:08;;;;;;;19.70;12.60;;;;;;;-4.56;85.09;98912.37;116832;1177;68425;-72
2021/10/25 04:42:38;;;;;;;25.50;15.10;;;;;;;-4.51;84.65;98911.98;116928;1180;68516;-70
2021/10/25 04:45:07;;;;;;;22.30;13.50;;;;;;;-4.41;84.69;98911.95;116933;1178;59500;-74
2021/10/25 04:47:38;;;;;;;25.80;15.30;;;;;;;-4.37;84.71;98912.74;116928;1177;59587;-70
2021/10/25 04:50:19;;;;;;;29.30;15.90;;;;;;;-4.32;84.90;98912.08;116849;1178;70606;-74
2021/10/25 04:53:05;;;;;;;27.30;14.80;;;;;;;-4.29;85.09;98913.23;116971;1177;68399;-74
2021/10/25 04:55:34;;;;;;;32.00;17.40;;;;;;;-4.24;86.36;98914.02;117038;1177;69716;-72
2021/10/25 04:58:03;;;;;;;30.90;15.30;;;;;;;-4.25;85.99;98921.72;116984;1170;59558;-72
2021/10/25 05:00:32;;;;;;;25.80;15.50;;;;;;;-4.28;85.38;98915.78;117003;1173;59514;-71
2021/10/25 05:03:02;;;;;;;30.10;15.80;;;;;;;-4.29;84.86;98915.72;117017;1177;70579;-71
2021/10/25 05:05:33;;;;;;;24.70;13.70;;;;;;;-4.30;84.86;98912.65;117001;1177;67658;-69
2021/10/25 05:08:02;;;;;;;21.50;13.10;;;;;;;-4.29;84.98;98913.84;116931;1177;69243;-69
2021/10/25 05:10:32;;;;;;;21.70;12.30;;;;;;;-4.25;86.08;98918.21;116901;1179;59534;-69
2021/10/25 05:13:01;;;;;;;16.80;10.10;;;;;;;-4.23;85.83;98922.88;116946;1177;59603;-68
2021/10/25 05:15:31;;;;;;;22.00;13.10;;;;;;;-4.21;85.93;98926.86;116844;1179;70777;-67
2021/10/25 05:18:04;;;;;;;18.40;9.70;;;;;;;-4.18;85.30;98929.94;116994;1178;67855;-69
2021/10/25 05:20:33;;;;;;;24.20;12.40;;;;;;;-4.17;85.55;98929.16;116793;1178;68946;-68
2021/10/25 05:23:02;;;;;;;22.70;12.80;;;;;;;-4.13;85.94;98929.61;116922;1177;59542;-72
2021/10/25 05:25:31;;;;;;;22.10;14.00;;;;;;;-4.07;86.13;98933.30;116797;1177;59510;-68
2021/10/25 05:28:01;;;;;;;22.00;14.10;;;;;;;-4.04;85.60;98935.66;116921;1177;71171;-68
2021/10/25 05:30:36;;;;;;;25.00;15.90;;;;;;;-4.02;85.06;98933.88;116684;1178;69030;-69
2021/10/25 05:33:05;;;;;;;32.50;18.30;;;;;;;-4.01;84.64;98936.42;116955;1177;68478;-67
2021/10/25 05:35:34;;;;;;;27.80;17.10;;;;;;;-4.00;84.33;98935.16;116744;1178;59551;-70
2021/10/25 05:38:03;;;;;;;23.50;12.50;;;;;;;-3.98;83.96;98935.17;116871;1178;59533;-71
2021/10/25 05:40:32;;;;;;;33.50;17.40;;;;;;;-3.94;83.78;98938.45;117029;1176;70547;-68
2021/10/25 05:43:02;;;;;;;22.70;11.10;;;;;;;-3.90;83.61;98940.65;116975;1177;67593;-68
2021/10/25 05:45:32;;;;;;;31.50;14.40;;;;;;;-3.84;83.61;98944.81;116878;1178;69253;-68
2021/10/25 05:48:02;;;;;;;22.20;13.50;;;;;;;-3.80;83.64;98949.08;116937;1178;59498;-69
2021/10/25 05:50:32;;;;;;;26.30;13.50;;;;;;;-3.72;83.83;98951.02;116915;1177;59541;-74
2021/10/25 05:53:02;;;;;;;24.10;14.50;;;;;;;-3.61;84.84;98949.90;117110;1177;70340;-74
2021/10/25 05:55:32;;;;;;;31.70;15.20;;;;;;;-3.50;84.55;98953.68;116800;1177;68181;-70
2021/10/25 05:58:02;;;;;;;29.50;16.60;;;;;;;-3.39;84.46;98959.83;117105;1177;69298;-70
2021/10/25 06:00:37;;;;;;;18.90;12.30;;;;;;;-3.27;84.43;98957.61;117088;1177;59532;-69
2021/10/25 06:03:07;;;;;;;25.40;14.60;;;;;;;-3.15;84.52;98962.07;116948;1177;59545;-70
2021/10/25 06:05:40;;;;;;;34.40;17.70;;;;;;;-3.03;84.09;98957.17;117041;1176;71926;-69
2021/10/25 06:08:13;;;;;;;49.30;26.10;;;;;;;-2.87;83.84;98958.92;116875;1179;68450;-68
2021/10/25 06:10:43;;;;;;;38.70;21.50;;;;;;;-2.54;83.40;98962.63;116851;1177;69091;-69
2021/10/25 06:13:22;;;;;;;55.80;29.10;;;;;;;-1.95;82.28;98959.27;116819;1178;59500;-71
2021/10/25 06:15:57;;;;;;;50.20;28.00;;;;;;;-1.22;83.10;98956.61;117058;1177;59544;-67
2021/10/25 06:18:26;;;;;;;57.60;30.30;;;;;;;-0.53;81.62;98958.55;117050;1169;70593;-70
2021/10/25 06:20:55;;;;;;;48.00;26.00;;;;;;;0.13;80.91;98955.70;116883;1179;69359;-72
2021/10/25 06:23:24;;;;;;;39.70;25.00;;;;;;;0.80;81.42;98962.48;116814;1177;69194;-69
2021/10/25 06:25:53;;;;;;;42.30;25.90;;;;;;;1.46;80.29;98965.69;116909;1178;59570;-73
2021/10/25 06:28:25;;;;;;;;;;;;;;;2.06;76.29;98965.63;116958;1177;59500;-72
2021/10/25 06:31:08;;;;;;;38.10;23.80;;;;;;;2.67;77.21;98965.01;116913;1177;71176;-67
2021/10/25 06:34:08;;;;;;;39.30;23.30;;;;;;;3.29;74.07;98965.47;116810;1177;67386;-68
2021/10/25 06:36:56;;;;;;;40.70;24.30;;;;;;;3.83;71.30;98964.36;116979;1177;68401;-71
2021/10/25 06:39:40;;;;;;;36.50;23.80;;;;;;;4.08;65.55;98964.66;116979;1177;59519;-68
2021/10/25 06:42:10;;;;;;;36.20;23.10;;;;;;;4.51;66.80;98961.53;116911;1177;59597;-72
2021/10/25 06:44:55;;;;;;;35.90;19.40;;;;;;;4.84;63.73;98964.41;116939;1177;70815;-69
2021/10/25 06:47:29;;;;;;;28.80;18.90;;;;;;;5.07;59.36;98960.02;116732;1179;67603;-70
2021/10/25 06:50:05;;;;;;;31.10;17.70;;;;;;;5.27;57.41;98959.10;116931;1177;69249;-70
2021/10/25 06:52:40;;;;;;;26.40;16.60;;;;;;;5.59;57.17;98960.15;116938;1177;59545;-70
2021/10/25 06:55:13;;;;;;;26.20;17.60;;;;;;;5.33;57.34;98961.86;116885;1177;59471;-70
2021/10/25 06:57:47;;;;;;;24.10;14.20;;;;;;;6.15;57.48;98965.66;116765;1178;71030;-67
2021/10/25 07:00:27;;;;;;;19.70;12.50;;;;;;;6.27;55.38;98967.62;116579;1179;68682;-68
2021/10/25 07:02:56;;;;;;;21.60;13.20;;;;;;;6.55;54.60;98964.33;116935;1177;69161;-73
2021/10/25 07:05:33;;;;;;;18.80;12.50;;;;;;;6.95;53.83;98960.71;117046;1177;59545;-72
2021/10/25 07:08:04;;;;;;;18.20;12.80;;;;;;;7.00;52.33;98957.92;117065;1177;58998;-70
2021/10/25 07:10:35;;;;;;;23.50;12.50;;;;;;;7.62;52.28;98951.11;116925;1177;71556;-74
2021/10/25 07:13:19;;;;;;;20.40;10.10;;;;;;;7.97;51.30;98945.86;117019;1176;68408;-74
2021/10/25 07:16:05;;;;;;;18.20;11.10;;;;;;;7.80;50.23;98946.41;116965;1177;68308;-74
2021/10/25 08:04:27;;;;;;;11.70;6.20;;;;;;;13.00;38.34;98923.75;116860;1177;59528;-69
2021/10/25 08:12:13;;;;;;;12.70;7.30;;;;;;;14.28;36.99;98915.14;116851;1179;69613;-73
2021/10/25 08:14:56;;;;;;;10.70;7.30;;;;;;;14.69;35.70;98916.16;116717;1179;59554;-68
2021/10/25 08:20:28;;;;;;;9.00;5.70;;;;;;;14.27;35.14;98922.55;116775;1178;70747;-70
2021/10/25 08:22:57;;;;;;;11.80;6.10;;;;;;;14.46;34.04;98916.83;116868;1177;67965;-72
2021/10/25 08:25:33;;;;;;;12.50;6.80;;;;;;;14.39;35.45;98914.20;116909;1177;68716;-70
2021/10/25 08:28:14;;;;;;;10.10;6.00;;;;;;;15.16;33.40;98908.23;116892;1177;59581;-69
2021/10/25 08:30:48;;;;;;;11.20;6.10;;;;;;;14.21;34.73;98903.64;116831;1173;59574;-74
2021/10/25 08:41:50;;;;;;;12.40;6.60;;;;;;;14.65;34.32;98905.36;116867;1177;59542;-70
2021/10/25 08:44:23;;;;;;;11.80;5.60;;;;;;;15.14;33.70;98904.38;116768;1177;59536;-69
2021/10/25 08:46:55;;;;;;;11.70;6.00;;;;;;;15.17;33.16;98904.21;116536;1180;71310;-72
2021/10/25 08:49:24;;;;;;;12.10;6.40;;;;;;;15.76;32.19;98901.88;116893;1177;68167;-72
2021/10/25 08:51:54;;;;;;;11.70;5.70;;;;;;;15.57;32.20;98901.80;116847;1179;68443;-68
2021/10/25 08:54:29;;;;;;;11.80;5.90;;;;;;;15.80;32.47;98900.05;116879;1177;59539;-70
2021/10/25 08:57:01;;;;;;;11.80;5.80;;;;;;;15.74;32.16;98901.90;116786;1177;59557;-69
2021/10/25 08:59:35;;;;;;;10.20;5.10;;;;;;;16.77;31.30;98895.86;116923;1178;71786;-69
2021/10/25 09:02:06;;;;;;;10.00;5.70;;;;;;;16.99;30.14;98896.20;116906;1177;67583;-76
2021/10/25 09:05:05;;;;;;;10.50;4.90;;;;;;;17.45;28.14;98896.21;116894;1177;69645;-73
2021/10/25 09:08:00;;;;;;;10.60;5.70;;;;;;;16.50;29.74;98892.84;116785;1178;59503;-71
2021/10/25 09:10:37;;;;;;;;;;;;;;;17.14;29.24;98888.86;116846;1178;59935;-76
2021/10/25 09:13:13;;;;;;;7.50;4.70;;;;;;;17.10;29.17;98890.84;116924;1177;71368;-69
2021/10/25 09:15:47;;;;;;;10.30;4.60;;;;;;;17.97;28.59;98893.66;116861;1178;69673;-70
2021/10/25 09:18:37;;;;;;;9.00;5.10;;;;;;;17.63;28.16;98893.55;116856;1173;68665;-70
2021/10/25 09:21:13;;;;;;;8.70;4.70;;;;;;;17.78;27.67;98894.69;116963;1177;59491;-70
2021/10/25 09:23:51;;;;;;;9.70;5.40;;;;;;;17.93;27.81;98894.77;116929;1177;59497;-71
2021/10/25 09:26:28;;;;;;;11.50;5.30;;;;;;;17.87;27.46;98893.98;116653;1178;69766;-77
2021/10/25 09:29:03;;;;;;;8.20;4.60;;;;;;;18.62;26.44;98894.55;116857;1177;67615;-69
2021/10/25 09:31:35;;;;;;;10.90;5.00;;;;;;;18.09;26.95;98890.48;116936;1177;68256;-76
2021/10/25 09:34:11;;;;;;;9.90;4.60;;;;;;;17.29;27.91;98889.95;116972;1177;59600;-70
2021/10/25 09:37:06;;;;;;;10.20;5.30;;;;;;;16.85;29.13;98889.92;117025;1176;59522;-70
2021/10/25 09:39:47;;;;;;;8.00;4.50;;;;;;;17.60;28.47;98887.34;116983;1177;71150;-74
2021/10/25 09:45:30;;;;;;;10.30;5.70;;;;;;;19.17;26.53;98879.73;116442;1181;69119;-70
2021/10/25 09:51:16;;;;;;;8.30;4.80;;;;;;;20.56;24.30;98869.00;116682;1177;59598;-74
2021/10/25 09:54:06;;;;;;;8.20;4.60;;;;;;;20.43;23.97;98868.05;116912;1177;71125;-74
2021/10/25 09:56:45;;;;;;;7.20;4.50;;;;;;;20.89;23.83;98862.51;117008;1177;68405;-70
2021/10/25 10:02:12;;;;;;;8.40;4.30;;;;;;;20.10;23.75;98851.91;116908;1177;59605;-69
2021/10/25 10:04:49;;;;;;;7.50;4.40;;;;;;;19.15;24.97;98850.94;116918;1177;59503;-70
2021/10/25 10:07:27;;;;;;;7.80;4.70;;;;;;;19.93;24.46;98850.38;116869;1177;70624;-70
2021/10/25 10:10:15;;;;;;;8.00;4.30;;;;;;;19.63;25.08;98856.84;116949;1177;69097;-75
2021/10/25 10:12:49;;;;;;;8.10;4.10;;;;;;;20.52;24.15;98852.20;116895;1177;68216;-74
2021/10/25 10:15:26;;;;;;;11.90;4.30;;;;;;;21.31;23.27;98844.75;116911;1177;59548;-72
2021/10/25 10:18:00;;;;;;;12.60;4.60;;;;;;;21.37;22.89;98841.88;116916;1177;59536;-72
2021/10/25 10:20:53;;;;;;;10.60;4.60;;;;;;;20.86;23.07;98837.93;116914;1171;71526;-70
2021/10/25 10:23:24;;;;;;;9.00;4.20;;;;;;;21.75;22.46;98834.16;116913;1177;67909;-69
2021/10/25 10:25:55;;;;;;;12.20;4.20;;;;;;;22.06;21.93;98828.83;116868;1177;68235;-71
2021/10/25 10:28:41;;;;;;;8.40;4.30;;;;;;;21.91;21.69;98828.77;116934;1177;59548;-71
2021/10/25 10:31:25;;;;;;;7.00;3.60;;;;;;;21.60;21.47;98828.41;116938;1176;59580;-69
2021/10/25 10:34:23;;;;;;;8.10;3.90;;;;;;;21.33;22.07;98823.67;116902;1177;70785;-70
2021/10/25 10:36:57;;;;;;;8.30;4.30;;;;;;;22.18;21.29;98823.20;116887;1177;68573;-72
2021/10/25 10:39:39;;;;;;;7.10;3.80;;;;;;;22.15;21.01;98816.37;116831;1177;68623;-70
2021/10/25 10:42:41;;;;;;;8.80;4.20;;;;;;;21.84;21.60;98812.30;116519;1181;59556;-72
2021/10/25 10:45:21;;;;;;;8.10;4.00;;;;;;;21.70;21.21;98806.04;116562;1179;59586;-71
2021/10/25 10:47:56;;;;;;;8.60;3.90;;;;;;;21.83;20.81;98805.61;116876;1177;71486;-69
2021/10/25 10:53:15;;;;;;;10.00;4.30;;;;;;;21.74;21.24;98799.65;117025;1169;69214;-70
2021/10/25 10:55:52;;;;;;;6.60;3.70;;;;;;;21.71;21.44;98796.61;116945;1177;59540;-70
2021/10/25 10:58:48;;;;;;;7.10;3.50;;;;;;;22.28;20.91;98797.58;116988;1176;59538;-71
2021/10/25 11:01:18;;;;;;;7.20;3.60;;;;;;;22.31;20.55;98791.06;116952;1177;70583;-71
2021/10/25 11:04:04;;;;;;;7.00;3.70;;;;;;;22.60;19.72;98795.27;117000;1177;68353;-69
2021/10/25 11:06:35;;;;;;;8.90;4.20;;;;;;;22.27;20.03;98798.78;117035;1177;69271;-75
2021/10/25 11:09:12;;;;;;;6.60;3.30;;;;;;;21.90;20.70;98793.30;116862;1177;59494;-73
2021/10/25 11:11:42;;;;;;;8.90;3.90;;;;;;;21.56;20.58;98784.13;116988;1177;59478;-72
2021/10/25 11:14:17;;;;;;;8.10;4.10;;;;;;;21.01;21.22;98789.77;116916;1177;70641;-74
2021/10/25 11:17:13;;;;;;;9.50;4.30;;;;;;;22.20;20.57;98783.13;116943;1176;67601;-78
2021/10/25 11:19:55;;;;;;;8.90;4.20;;;;;;;22.42;20.32;98777.16;117010;1177;69487;-73
2021/10/25 11:22:35;;;;;;;7.90;4.20;;;;;;;22.94;20.35;98775.13;117108;1176;59529;-78
2021/10/25 11:25:07;;;;;;;8.60;4.30;;;;;;;23.63;19.32;98771.23;117136;1177;59475;-72
2021/10/25 11:27:39;;;;;;;8.30;4.40;;;;;;;23.75;19.09;98765.39;116909;1177;71354;-71
2021/10/25 11:30:19;;;;;;;8.30;4.30;;;;;;;24.09;18.79;98765.48;117035;1177;68494;-70
2021/10/25 11:32:48;;;;;;;12.50;7.10;;;;;;;24.14;19.11;98758.53;117044;1177;68468;-71
2021/10/25 11:35:19;;;;;;;12.00;6.30;;;;;;;24.56;18.90;98747.67;117013;1177;59539;-71
2021/10/25 11:37:51;;;;;;;11.20;6.10;;;;;;;24.05;18.97;98746.46;117223;1176;59513;-73
2021/10/25 11:40:23;;;;;;;10.90;6.20;;;;;;;23.63;19.39;98742.94;116998;1177;72373;-77
2021/10/25 11:42:53;;;;;;;13.70;6.80;;;;;;;23.45;19.81;98738.16;116968;1178;68316;-71
2021/10/25 11:45:25;;;;;;;13.20;5.50;;;;;;;24.28;18.95;98736.17;116994;1177;68300;-72
2021/10/25 11:47:54;;;;;;;12.60;6.10;;;;;;;24.35;18.56;98727.42;117167;1177;59590;-75
2021/10/25 11:50:26;;;;;;;11.60;5.70;;;;;;;24.01;19.65;98730.10;116952;1176;59539;-70
2021/10/25 11:53:15;;;;;;;12.90;7.00;;;;;;;24.34;18.44;98726.85;117002;1177;71681;-70
2021/10/25 11:55:43;;;;;;;15.40;7.80;;;;;;;23.89;19.40;98724.09;117147;1177;68999;-71
2021/10/25 11:58:14;;;;;;;11.30;7.30;;;;;;;23.69;19.57;98719.28;117114;1176;69242;-72
2021/10/25 12:00:48;;;;;;;12.50;6.80;;;;;;;23.69;19.18;98719.47;117098;1177;59495;-73
2021/10/25 12:03:29;;;;;;;12.10;6.10;;;;;;;23.10;19.89;98717.39;116996;1177;59613;-68
2021/10/25 12:05:58;;;;;;;11.30;6.50;;;;;;;22.85;20.13;98713.41;116939;1177;70658;-71
2021/10/25 12:08:27;;;;;;;12.70;5.90;;;;;;;22.72;20.55;98706.48;117172;1177;67638;-72
2021/10/25 12:10:58;;;;;;;11.70;6.00;;;;;;;23.25;19.60;98703.09;117160;1177;68400;-73
2021/10/25 12:13:27;;;;;;;12.40;6.70;;;;;;;23.51;19.61;98698.45;117135;1176;59538;-70
2021/10/25 12:16:00;;;;;;;14.30;7.10;;;;;;;23.86;19.33;98700.55;116935;1179;59510;-71
2021/10/25 12:18:29;;;;;;;12.80;6.80;;;;;;;23.69;19.42;98695.20;117049;1176;69538;-73
2021/10/25 12:21:08;;;;;;;12.90;7.10;;;;;;;23.36;19.56;98693.29;116944;1177;67890;-76
2021/10/25 12:23:50;;;;;;;12.80;6.80;;;;;;;22.87;20.18;98696.60;117114;1177;69902;-74
2021/10/25 12:26:19;;;;;;;11.50;6.70;;;;;;;21.87;21.46;98689.94;117092;1177;59541;-70
2021/10/25 12:28:48;;;;;;;10.70;6.50;;;;;;;22.32;21.62;98694.04;116957;1177;59484;-73
2021/10/25 12:31:20;;;;;;;12.80;6.60;;;;;;;22.02;21.96;98692.25;117031;1177;72013;-72
2021/10/25 12:34:01;;;;;;;15.10;6.40;;;;;;;22.86;20.44;98686.93;117028;1177;67829;-69
2021/10/25 12:36:36;;;;;;;11.10;6.60;;;;;;;22.83;20.39;98683.81;117005;1177;69825;-74
2021/10/25 12:39:12;;;;;;;17.00;6.70;;;;;;;23.05;20.13;98679.27;117015;1177;59544;-72
2021/10/25 12:41:56;;;;;;;12.60;6.70;;;;;;;22.64;20.85;98673.35;116967;1177;59538;-76
2021/10/25 12:44:31;;;;;;;13.00;7.30;;;;;;;22.66;21.22;98663.70;116934;1177;71417;-75
2021/10/25 12:47:06;;;;;;;14.60;7.20;;;;;;;23.28;20.50;98660.02;116930;1177;68437;-72
2021/10/25 12:49:36;;;;;;;12.10;6.50;;;;;;;22.71;20.19;98659.60;116863;1178;68409;-71
2021/10/25 12:52:07;;;;;;;12.50;6.30;;;;;;;21.80;21.43;98653.71;116934;1179;59554;-81
2021/10/25 12:54:38;;;;;;;14.20;7.60;;;;;;;22.08;20.99;98652.28;117006;1177;59548;-79
2021/10/25 12:57:23;;;;;;;10.40;6.80;;;;;;;22.72;20.41;98653.74;116988;1178;71974;-72
2021/10/25 12:59:58;;;;;;;11.10;6.90;;;;;;;22.19;20.85;98649.55;116991;1177;67629;-73
2021/10/25 13:02:28;;;;;;;14.20;6.80;;;;;;;22.61;20.39;98648.67;116870;1179;68465;-70
2021/10/25 13:05:13;;;;;;;12.00;6.60;;;;;;;21.95;21.36;98650.14;117017;1177;59593;-73
2021/10/25 13:07:56;;;;;;;13.20;7.10;;;;;;;21.93;21.05;98641.33;116974;1177;59556;-75
2021/10/25 13:10:29;;;;;;;10.60;6.00;;;;;;;22.12;20.86;98645.02;116967;1178;71313;-75
2021/10/25 13:13:01;;;;;;;12.70;6.80;;;;;;;22.01;21.17;98643.57;116995;1177;68483;-68
2021/10/25 13:15:31;;;;;;;11.90;6.60;;;;;;;22.42;20.43;98642.59;116966;1177;69012;-73
2021/10/25 13:18:02;;;;;;;11.50;6.00;;;;;;;21.80;20.94;98639.52;116865;1177;59527;-72
2021/10/25 13:20:33;;;;;;;11.30;5.60;;;;;;;21.45;21.22;98635.05;116992;1176;59455;-72
2021/10/25 13:23:04;;;;;;;12.60;5.70;;;;;;;21.45;22.04;98631.70;117013;1178;69742;-74
2021/10/25 13:25:34;;;;;;;14.00;6.60;;;;;;;21.59;21.82;98633.66;117023;1177;67677;-76
2021/10/25 13:28:04;;;;;;;;;;;;;;;22.54;20.34;98626.90;116914;1178;69614;-73
2021/10/25 13:30:34;;;;;;;11.50;5.90;;;;;;;22.67;20.24;98623.02;117054;1177;59612;-71